Terminal Aerodrome Forecast
Issued by NWS Amarillo, TX

Home | Current Version | Previous Version | Text Only | Print | Product List | Glossary On
Versions: 1 2 3 4 5 6 7 8 9 10 11 12 13 14 15 16
000
FTUS44 KAMA 021100
TAFDHT
TAF
KDHT 021138Z 0212/0312 03011KT 5SM BR OVC005
     FM021600 04009KT P6SM OVC015
     FM021900 10008KT P6SM SCT050
     FM022200 17010KT P6SM FEW100=

USA.gov is the U.S. government's official web portal to all federal, state and local government web resources and services.